createdAt,value
2023-04-25T00:00:07.973Z,96490.03
2023-04-25T00:05:16.158Z,96492.53
2023-04-25T00:10:18.225Z,96503.78
2023-04-25T00:15:19.819Z,96493.66
2023-04-25T00:20:21.452Z,96500.75
2023-04-25T00:25:23.120Z,96488.47
2023-04-25T00:30:25.918Z,96487.66
2023-04-25T00:35:27.682Z,96503.53
2023-04-25T00:40:29.404Z,96498.66
2023-04-25T00:45:31.585Z,96494.56
2023-04-25T00:50:36.428Z,96490.22
2023-04-25T00:55:38.119Z,96487.53
2023-04-25T01:00:41.473Z,96494.34
2023-04-25T01:05:44.248Z,96491.59
2023-04-25T01:10:46.244Z,96485.53
2023-04-25T01:15:48.639Z,96482.78
2023-04-25T01:20:51.655Z,96483.59
2023-04-25T01:25:54.748Z,96482.75
2023-04-25T01:30:57.821Z,96480.28
2023-04-25T01:36:00.188Z,96472.84
2023-04-25T01:41:01.919Z,96467.38
2023-04-25T01:46:03.880Z,96472.00
2023-04-25T01:51:05.634Z,96461.91
2023-04-25T01:56:07.693Z,96458.06
2023-04-25T02:01:10.857Z,96466.88
2023-04-25T02:06:19.932Z,96459.22
2023-04-25T02:11:22.956Z,96462.75
2023-04-25T02:16:39.743Z,96456.44
2023-04-25T02:21:42.827Z,96448.22
2023-04-25T02:26:47.826Z,96457.78
2023-04-25T02:31:49.763Z,96457.53
2023-04-25T02:36:52.629Z,96452.06
2023-04-25T02:41:54.635Z,96446.59
2023-04-25T02:46:57.312Z,96438.91
2023-04-25T02:51:59.179Z,96433.44
2023-04-25T02:57:01.955Z,96439.53
2023-04-25T03:02:07.730Z,96432.47
2023-04-25T03:07:09.532Z,96434.94
2023-04-25T03:12:11.541Z,96439.63
2023-04-25T03:17:13.479Z,96422.97
2023-04-25T03:22:15.520Z,96422.19
2023-04-25T03:27:20.825Z,96427.91
2023-04-25T03:32:22.706Z,96427.94
2023-04-25T03:37:24.487Z,96421.69
2023-04-25T03:42:26.506Z,96424.94
2023-04-25T03:47:28.851Z,96427.66
2023-04-25T03:52:30.837Z,96434.78
2023-04-25T03:57:33.590Z,96448.00
2023-04-25T04:02:36.121Z,96448.31
2023-04-25T04:07:40.951Z,96434.34
2023-04-25T04:12:45.226Z,96435.75
2023-04-25T04:17:48.027Z,96433.78
2023-04-25T04:22:50.222Z,96428.81
2023-04-25T04:27:55.628Z,96417.56
2023-04-25T04:33:30.448Z,96416.19
2023-04-25T04:38:37.507Z,96425.47
2023-04-25T04:43:40.566Z,96424.38
2023-04-25T04:49:12.391Z,96437.53
2023-04-25T04:54:30.600Z,96454.72
2023-04-25T04:59:51.460Z,96452.25
2023-04-25T05:05:13.076Z,96444.59
2023-04-25T05:10:33.953Z,96447.31
2023-04-25T05:15:53.208Z,96438.59
2023-04-25T05:21:05.728Z,96434.75
2023-04-25T05:26:32.156Z,96433.06
2023-04-25T05:31:49.288Z,96443.63
2023-04-25T05:36:52.096Z,96441.47
2023-04-25T05:41:55.298Z,96437.41
2023-04-25T05:47:16.829Z,96438.03
2023-04-25T05:52:33.750Z,96437.53
2023-04-25T05:57:57.946Z,96423.84
2023-04-25T06:02:59.716Z,96425.97
2023-04-25T06:08:02.136Z,96427.31
2023-04-25T06:13:04.875Z,96425.91
2023-04-25T06:18:08.491Z,96435.22
2023-04-25T06:23:10.247Z,96429.44
2023-04-25T06:28:34.506Z,96427.41
2023-04-25T06:33:36.150Z,96419.72
2023-04-25T06:38:39.038Z,96420.22
2023-04-25T06:43:41.101Z,96440.47
2023-04-25T06:48:59.874Z,96437.16
2023-04-25T06:54:01.852Z,96430.16
2023-04-25T06:59:10.719Z,96434.25
2023-04-25T07:04:14.505Z,96433.28
2023-04-25T07:09:22.228Z,96428.81
2023-04-25T07:14:25.477Z,96433.44
2023-04-25T07:19:30.626Z,96427.09
2023-04-25T07:24:34.644Z,96436.47
2023-04-25T07:29:38.329Z,96432.19
2023-04-25T07:34:40.420Z,96427.09
2023-04-25T07:39:42.949Z,96420.94
2023-04-25T07:44:45.187Z,96414.50
2023-04-25T07:49:49.334Z,96423.84
2023-04-25T07:54:51.242Z,96422.09
2023-04-25T07:59:59.471Z,96422.09
2023-04-25T08:05:02.088Z,96410.66
2023-04-25T08:10:04.582Z,96415.22
2023-04-25T08:15:09.838Z,96422.63
2023-04-25T08:20:16.196Z,96429.88
2023-04-25T08:25:18.822Z,96428.59
2023-04-25T08:30:22.194Z,96437.19
2023-04-25T08:35:26.109Z,96434.94
2023-04-25T08:40:29.836Z,96432.25
2023-04-25T08:45:36.778Z,96429.91
2023-04-25T08:50:45.179Z,96436.13
2023-04-25T08:55:50.213Z,96426.13
2023-04-25T09:00:52.497Z,96440.94
2023-04-25T09:05:57.498Z,96445.44
2023-04-25T09:10:59.371Z,96446.25
2023-04-25T09:16:01.301Z,96449.94
2023-04-25T09:21:14.884Z,96456.84
2023-04-25T09:26:20.961Z,96464.44
2023-04-25T09:31:27.057Z,96477.94
2023-04-25T09:36:35.615Z,96474.41
2023-04-25T09:42:12.633Z,96468.88
2023-04-25T09:47:16.667Z,96477.06
2023-04-25T09:52:24.586Z,96499.09
2023-04-25T10:02:51.705Z,96511.81
2023-04-25T10:08:14.350Z,96525.13
2023-04-25T10:13:16.369Z,96521.50
2023-04-25T10:18:19.839Z,96513.09
2023-04-25T10:23:21.568Z,96517.66
2023-04-25T10:28:23.208Z,96512.16
2023-04-25T10:33:51.567Z,96520.75
2023-04-25T10:38:54.036Z,96521.38
2023-04-25T10:44:05.241Z,96523.06
2023-04-25T10:49:09.149Z,96524.63
2023-04-25T10:54:10.850Z,96522.91
2023-04-25T10:59:13.269Z,96521.72
2023-04-25T11:04:32.039Z,96532.47
2023-04-25T11:09:39.184Z,96521.72
2023-04-25T11:19:42.546Z,96533.59
2023-04-25T11:24:44.773Z,96529.41
2023-04-25T11:29:48.966Z,96525.56
2023-04-25T11:34:50.700Z,96535.06
2023-04-25T11:39:52.560Z,96525.25
2023-04-25T11:44:54.602Z,96525.81
2023-04-25T11:49:56.263Z,96525.56
2023-04-25T11:54:57.948Z,96534.28
2023-04-25T12:00:26.192Z,96530.84
2023-04-25T12:05:34.323Z,96539.59
2023-04-25T12:10:38.360Z,96541.28
2023-04-25T12:15:44.494Z,96534.78
2023-04-25T12:20:46.552Z,96541.19
2023-04-25T12:25:48.283Z,96538.75
2023-04-25T12:31:09.327Z,96533.59
2023-04-25T12:36:13.266Z,96544.09
2023-04-25T12:41:15.264Z,96542.13
2023-04-25T12:46:17.525Z,96558.41
2023-04-25T12:51:19.588Z,96559.44
2023-04-25T12:56:23.612Z,96570.03
2023-04-25T13:01:27.568Z,96569.16
2023-04-25T13:06:31.037Z,96573.31
2023-04-25T13:11:32.656Z,96565.88
2023-04-25T13:16:34.483Z,96573.56
2023-04-25T13:21:36.602Z,96573.50
2023-04-25T13:26:38.855Z,96587.97
2023-04-25T13:31:40.600Z,96590.06
2023-04-25T13:36:42.367Z,96603.09
2023-04-25T13:41:43.892Z,96600.59
2023-04-25T13:46:50.023Z,96605.66
2023-04-25T13:51:51.823Z,96605.16
2023-04-25T13:56:56.300Z,96600.69
2023-04-25T14:01:57.959Z,96603.19
2023-04-25T14:06:59.716Z,96616.44
2023-04-25T14:12:01.535Z,96621.56
2023-04-25T14:17:03.194Z,96622.75
2023-04-25T14:22:04.900Z,96631.88
2023-04-25T14:27:06.589Z,96628.59
2023-04-25T14:32:08.379Z,96630.56
2023-04-25T14:37:10.192Z,96628.34
2023-04-25T14:42:12.173Z,96642.03
2023-04-25T14:47:14.004Z,96655.72
2023-04-25T14:52:15.960Z,96665.88
2023-04-25T14:57:17.988Z,96664.25
2023-04-25T15:02:19.884Z,96677.44
2023-04-25T15:07:23.302Z,96683.47
2023-04-25T15:12:27.163Z,96701.31
2023-04-25T15:17:32.043Z,96706.34
2023-04-25T15:22:34.144Z,96709.59
2023-04-25T15:27:38.919Z,96711.25
2023-04-25T15:32:40.615Z,96710.16
2023-04-25T15:37:42.686Z,96715.34
2023-04-25T15:42:51.367Z,96708.47
2023-04-25T15:47:53.463Z,96720.50
2023-04-25T15:52:55.340Z,96734.69
2023-04-25T15:57:56.940Z,96735.88
2023-04-25T16:02:58.877Z,96733.09
2023-04-25T16:08:01.026Z,96718.59
2023-04-25T16:13:03.896Z,96717.16
2023-04-25T16:18:05.697Z,96713.81
2023-04-25T16:23:07.850Z,96720.91
2023-04-25T16:28:09.412Z,96725.00
2023-04-25T16:33:11.666Z,96732.41
2023-04-25T16:38:13.496Z,96728.56
2023-04-25T16:43:17.568Z,96736.25
2023-04-25T16:48:20.799Z,96750.75
2023-04-25T16:53:23.181Z,96755.94
2023-04-25T16:58:27.053Z,96772.44
2023-04-25T17:03:29.065Z,96785.63
2023-04-25T17:08:31.013Z,96791.13
2023-04-25T17:13:33.097Z,96790.00
2023-04-25T17:18:34.727Z,96790.00
2023-04-25T17:23:37.006Z,96789.44
2023-04-25T17:28:39.146Z,96791.63
2023-04-25T17:33:40.911Z,96793.84
2023-04-25T17:38:42.552Z,96792.72
2023-04-25T17:43:44.240Z,96811.56
2023-04-25T17:48:46.132Z,96812.41
2023-04-25T17:53:47.768Z,96820.59
2023-04-25T17:58:50.071Z,96828.22
2023-04-25T18:03:52.384Z,96832.09
2023-04-25T18:08:54.940Z,96844.38
2023-04-25T18:13:56.856Z,96859.09
2023-04-25T18:19:05.221Z,96867.03
2023-04-25T18:24:09.440Z,96876.88
2023-04-25T18:29:22.041Z,96881.25
2023-04-25T18:34:34.230Z,96896.56
2023-04-25T18:39:35.865Z,96906.41
2023-04-25T18:44:40.457Z,96909.69
2023-04-25T18:49:42.080Z,96916.25
2023-04-25T18:54:43.766Z,96915.19
2023-04-25T18:59:46.232Z,96927.22
2023-04-25T19:04:48.181Z,96931.59
2023-04-25T19:09:49.955Z,96939.75
2023-04-25T19:14:51.649Z,96943.00
2023-04-25T19:19:53.282Z,96961.00
2023-04-25T19:25:06.752Z,96958.28
2023-04-25T19:30:11.635Z,96959.13
2023-04-25T19:35:13.422Z,96967.06
2023-04-25T19:40:16.269Z,96976.06
2023-04-25T19:45:17.979Z,96976.00
2023-04-25T19:50:21.584Z,96983.94
2023-04-25T19:55:23.251Z,96987.53
2023-04-25T20:00:25.127Z,96991.66
2023-04-25T20:05:27.376Z,96986.72
2023-04-25T20:10:29.568Z,96990.00
2023-04-25T20:15:31.857Z,96988.63
2023-04-25T20:20:33.508Z,96989.47
2023-04-25T20:25:35.600Z,96989.47
2023-04-25T20:30:37.550Z,96993.81
2023-04-25T20:35:39.182Z,96996.00
2023-04-25T20:40:40.804Z,96986.66
2023-04-25T20:45:42.801Z,96995.34
2023-04-25T20:50:44.549Z,96998.91
2023-04-25T20:55:46.439Z,96998.63
2023-04-25T21:00:48.963Z,96994.28
2023-04-25T21:05:51.505Z,96998.91
2023-04-25T21:10:53.289Z,97002.16
2023-04-25T21:15:55.349Z,97006.94
2023-04-25T21:20:57.221Z,97014.78
2023-04-25T21:25:58.996Z,97009.28
2023-04-25T21:31:00.704Z,97014.22
2023-04-25T21:36:02.343Z,97017.47
2023-04-25T21:41:05.298Z,97034.78
2023-04-25T21:46:22.059Z,97019.03
2023-04-25T21:51:25.500Z,97019.09
2023-04-25T21:56:27.096Z,97022.41
2023-04-25T22:01:29.391Z,97027.06
2023-04-25T22:06:31.019Z,97042.63
2023-04-25T22:11:35.467Z,97052.16
2023-04-25T22:16:38.362Z,97043.06
2023-04-25T22:21:40.216Z,97039.00
2023-04-25T22:26:42.682Z,97039.31
2023-04-25T22:31:44.595Z,97037.09
2023-04-25T22:36:46.268Z,97044.25
2023-04-25T22:41:48.887Z,97036.59
2023-04-25T22:46:50.608Z,97043.72
2023-04-25T22:51:55.488Z,97053.03
2023-04-25T22:56:57.905Z,97057.31
2023-04-25T23:02:00.227Z,97060.78
2023-04-25T23:07:01.957Z,97055.56
2023-04-25T23:12:04.468Z,97048.53
2023-04-25T23:17:06.783Z,97047.44
2023-04-25T23:22:09.077Z,97057.25
2023-04-25T23:27:10.771Z,97051.25
2023-04-25T23:32:12.949Z,97052.91
2023-04-25T23:37:14.616Z,97060.94
2023-04-25T23:42:19.238Z,97069.31
2023-04-25T23:47:21.273Z,97077.34
2023-04-25T23:52:23.584Z,97081.66
2023-04-25T23:57:25.348Z,97078.00
